Time;durP1;ratioP1;P1;durP2;ratioP2;P2;SDS_P1;SDS_P2;PMS_P1;PMS_P2;Temp;Humidity;BMP_temperature;BMP_pressure;BME280_temperature;BME280_humidity;BME280_pressure;Samples;Min_cycle;Max_cycle;Signal;HPM_P1;HPM_P2
2021/12/08 00:00:50;;;;;;;5.50;1.23;;;4.20;99.90;;;;;;5031375;28;20582;-66
2021/12/08 00:03:15;;;;;;;1.02;0.85;;;4.20;99.90;;;;;;5027624;28;20113;-66
2021/12/08 00:05:44;;;;;;;1.45;0.98;;;4.20;99.90;;;;;;5029984;28;20517;-66
2021/12/08 00:08:11;;;;;;;1.90;1.13;;;4.20;99.90;;;;;;5024468;28;20474;-66
2021/12/08 00:13:07;;;;;;;0.95;0.80;;;4.10;99.90;;;;;;5030385;28;20161;-66
2021/12/08 00:15:45;;;;;;;2.30;1.42;;;4.10;99.90;;;;;;5029928;28;20538;-66
2021/12/08 00:18:24;;;;;;;3.55;1.95;;;4.10;99.90;;;;;;5029636;28;20053;-66
2021/12/08 00:20:52;;;;;;;1.73;1.10;;;4.00;99.90;;;;;;5017244;28;20018;-66
2021/12/08 00:23:18;;;;;;;2.22;1.20;;;4.00;99.90;;;;;;5027718;28;20021;-66
2021/12/08 00:25:44;;;;;;;1.65;0.98;;;4.00;99.90;;;;;;5023663;28;20525;-66
2021/12/08 00:28:11;;;;;;;1.45;0.90;;;4.10;99.90;;;;;;5021050;28;20021;-66
2021/12/08 00:30:39;;;;;;;2.13;1.13;;;4.10;99.90;;;;;;5026015;28;20022;-66
2021/12/08 00:33:05;;;;;;;1.45;1.02;;;4.20;99.90;;;;;;5027098;28;20026;-66
2021/12/08 00:35:33;;;;;;;2.55;1.08;;;4.30;99.90;;;;;;5025507;28;20077;-66
2021/12/08 00:37:59;;;;;;;1.45;1.05;;;4.40;99.90;;;;;;5027923;28;20036;-66
2021/12/08 00:40:28;;;;;;;1.67;1.42;;;4.30;99.90;;;;;;5020197;28;20328;-66
2021/12/08 00:42:54;;;;;;;2.30;1.52;;;4.30;99.90;;;;;;5030500;28;20828;-66
2021/12/08 00:45:21;;;;;;;0.90;0.85;;;4.30;99.90;;;;;;5025642;28;20099;-66
2021/12/08 00:47:47;;;;;;;3.42;1.55;;;4.30;99.90;;;;;;5030132;28;20025;-66
2021/12/08 00:50:14;;;;;;;5.10;1.40;;;4.30;99.90;;;;;;5023784;28;20036;-66
2021/12/08 00:52:40;;;;;;;1.80;1.17;;;4.40;99.90;;;;;;5029621;28;20044;-66
2021/12/08 00:55:09;;;;;;;1.85;1.15;;;4.50;99.90;;;;;;5022742;28;20021;-66
2021/12/08 00:57:35;;;;;;;2.05;1.23;;;4.50;99.90;;;;;;5029334;28;20804;-66
2021/12/08 01:00:03;;;;;;;2.90;1.10;;;4.60;99.90;;;;;;5028942;28;20474;-66
2021/12/08 01:02:29;;;;;;;0.73;0.73;;;4.70;99.90;;;;;;5026888;28;20041;-66
2021/12/08 01:04:56;;;;;;;2.67;1.30;;;4.70;99.90;;;;;;5029749;28;20107;-66
2021/12/08 01:07:22;;;;;;;2.25;1.05;;;4.70;99.90;;;;;;5019995;28;20061;-65
2021/12/08 01:09:48;;;;;;;5.35;1.60;;;4.70;99.90;;;;;;5029700;28;20486;-66
2021/12/08 01:12:14;;;;;;;2.55;1.35;;;4.70;99.90;;;;;;5026951;28;20065;-66
2021/12/08 01:14:40;;;;;;;2.03;1.05;;;4.70;99.90;;;;;;5025284;28;20109;-66
2021/12/08 01:17:06;;;;;;;1.63;0.98;;;4.60;99.90;;;;;;5029988;28;20112;-66
2021/12/08 01:19:32;;;;;;;2.67;1.27;;;4.60;99.90;;;;;;5030218;28;20029;-66
2021/12/08 01:21:58;;;;;;;3.10;1.10;;;4.70;99.90;;;;;;5026792;28;20079;-66
2021/12/08 01:24:24;;;;;;;4.38;1.60;;;4.60;99.90;;;;;;5029845;28;20037;-66
2021/12/08 01:26:50;;;;;;;2.75;1.27;;;4.50;99.90;;;;;;5021658;28;20425;-66
2021/12/08 01:29:16;;;;;;;4.07;1.52;;;4.40;99.90;;;;;;5027346;28;20025;-66
2021/12/08 01:31:44;;;;;;;2.25;0.95;;;4.40;99.90;;;;;;5023303;28;20022;-66
2021/12/08 01:34:11;;;;;;;1.58;1.08;;;4.40;99.90;;;;;;5026662;28;20095;-66
2021/12/08 01:36:38;;;;;;;1.35;0.88;;;4.40;99.90;;;;;;5024158;28;20028;-66
2021/12/08 01:39:05;;;;;;;2.60;1.15;;;4.40;99.90;;;;;;5026464;28;20519;-66
2021/12/08 01:41:31;;;;;;;2.25;1.23;;;4.40;99.90;;;;;;5029588;28;20029;-66
2021/12/08 01:46:41;;;;;;;2.38;1.25;;;4.30;99.90;;;;;;5028721;28;20040;-65
2021/12/08 01:49:07;;;;;;;0.73;0.73;;;4.30;99.90;;;;;;5023718;28;20104;-66
2021/12/08 01:51:33;;;;;;;2.28;1.20;;;4.30;99.90;;;;;;5027027;28;20044;-66
2021/12/08 01:54:01;;;;;;;0.95;0.85;;;4.30;99.90;;;;;;5027412;28;20494;-66
2021/12/08 01:56:29;;;;;;;1.20;1.10;;;4.20;99.90;;;;;;5026155;28;20048;-66
2021/12/08 01:58:55;;;;;;;4.82;1.10;;;4.20;99.90;;;;;;5028141;28;20399;-66
2021/12/08 02:01:25;;;;;;;2.70;1.10;;;4.10;99.90;;;;;;5025755;28;20017;-66
2021/12/08 02:03:50;;;;;;;2.63;1.40;;;4.10;99.90;;;;;;5026495;28;20238;-66
2021/12/08 02:06:18;;;;;;;2.08;1.33;;;4.10;99.90;;;;;;5023825;28;20512;-66
2021/12/08 02:08:45;;;;;;;1.17;0.80;;;4.10;99.90;;;;;;5027014;28;20029;-66
2021/12/08 02:11:11;;;;;;;1.83;0.90;;;4.20;99.90;;;;;;5022919;28;20029;-66
2021/12/08 02:13:39;;;;;;;1.38;0.98;;;4.20;99.90;;;;;;5025754;28;20035;-66
2021/12/08 02:16:08;;;;;;;1.55;1.05;;;4.20;99.90;;;;;;5024411;28;20026;-66
2021/12/08 02:18:35;;;;;;;1.38;0.95;;;4.20;99.90;;;;;;5028774;28;20120;-66
2021/12/08 02:21:19;;;;;;;5.53;1.70;;;4.30;99.90;;;;;;5021993;28;20139;-66
2021/12/08 02:23:45;;;;;;;3.13;1.10;;;4.30;99.90;;;;;;5015805;28;20461;-66
2021/12/08 02:26:10;;;;;;;1.38;1.00;;;4.30;99.90;;;;;;5025728;28;20773;-66
2021/12/08 02:28:36;;;;;;;1.40;0.98;;;4.40;99.90;;;;;;5026396;28;20106;-66
2021/12/08 02:31:06;;;;;;;2.30;1.10;;;4.40;99.90;;;;;;5025369;28;20036;-66
2021/12/08 02:47:52;;;;;;;0.95;0.80;;;4.60;99.90;;;;;;5021022;28;20032;-66
2021/12/08 02:50:24;;;;;;;3.97;0.85;;;4.60;99.90;;;;;;5027054;28;20374;-66
2021/12/08 02:52:51;;;;;;;1.42;0.93;;;4.50;99.90;;;;;;5028257;28;20025;-66
2021/12/08 02:55:16;;;;;;;2.15;1.15;;;4.60;99.90;;;;;;5023042;28;20040;-66
2021/12/08 02:57:42;;;;;;;1.85;1.08;;;4.60;99.90;;;;;;5028344;28;20017;-66
2021/12/08 03:00:11;;;;;;;1.38;1.00;;;4.70;99.90;;;;;;5018163;28;20461;-66
2021/12/08 03:02:36;;;;;;;0.85;0.85;;;4.70;99.90;;;;;;5020078;28;20385;-66
2021/12/08 03:05:03;;;;;;;4.05;1.38;;;4.80;99.90;;;;;;5026798;28;20112;-66
2021/12/08 03:07:29;;;;;;;2.03;1.10;;;4.80;99.90;;;;;;5024539;28;20049;-66
2021/12/08 03:10:05;;;;;;;1.95;1.00;;;4.80;99.90;;;;;;5027540;28;20735;-66
2021/12/08 03:12:31;;;;;;;1.27;0.90;;;4.80;99.90;;;;;;5028278;28;20052;-66
2021/12/08 03:14:57;;;;;;;5.03;1.25;;;4.80;99.90;;;;;;5022886;28;20128;-67
2021/12/08 03:17:23;;;;;;;4.05;2.42;;;4.80;99.90;;;;;;5027578;28;20097;-66
2021/12/08 03:19:49;;;;;;;1.45;1.15;;;4.80;99.90;;;;;;5022576;28;20596;-66
2021/12/08 03:22:15;;;;;;;1.95;1.05;;;4.80;99.90;;;;;;5024977;28;20054;-66
2021/12/08 03:24:44;;;;;;;0.90;0.90;;;4.90;99.90;;;;;;5025954;28;20494;-66
2021/12/08 03:27:13;;;;;;;2.35;1.20;;;4.90;99.90;;;;;;5023677;28;20032;-66
2021/12/08 03:29:50;;;;;;;2.25;1.25;;;4.90;99.90;;;;;;5027152;28;20029;-66
2021/12/08 03:32:26;;;;;;;2.85;1.52;;;4.90;99.90;;;;;;5022694;28;20029;-66
2021/12/08 03:34:52;;;;;;;2.00;1.33;;;4.90;99.90;;;;;;5026051;28;20028;-66
2021/12/08 03:37:32;;;;;;;1.90;1.05;;;4.90;99.90;;;;;;5019584;28;20096;-66
2021/12/08 03:40:00;;;;;;;1.58;1.00;;;4.90;99.90;;;;;;5017103;28;20029;-66
2021/12/08 03:42:29;;;;;;;1.30;0.88;;;4.90;99.90;;;;;;5020809;28;20033;-66
2021/12/08 03:44:57;;;;;;;3.63;1.63;;;5.00;99.90;;;;;;5023679;28;20036;-66
2021/12/08 03:47:29;;;;;;;3.17;1.33;;;5.00;99.90;;;;;;5026677;28;20045;-66
2021/12/08 03:49:58;;;;;;;0.82;0.82;;;4.90;99.90;;;;;;5023081;28;20032;-66
2021/12/08 03:52:25;;;;;;;4.07;1.40;;;5.00;99.90;;;;;;5025874;28;20117;-66
2021/12/08 03:54:51;;;;;;;1.70;1.20;;;5.00;99.90;;;;;;5023257;28;20021;-66
2021/12/08 03:57:17;;;;;;;6.22;2.00;;;5.00;99.90;;;;;;5020321;28;20083;-66
2021/12/08 03:59:42;;;;;;;1.15;0.95;;;5.00;99.90;;;;;;5026818;28;20026;-66
2021/12/08 04:02:08;;;;;;;3.22;1.20;;;4.90;99.90;;;;;;5022545;28;20097;-66
2021/12/08 04:04:43;;;;;;;3.08;1.35;;;4.90;99.90;;;;;;5027572;28;20026;-66
2021/12/08 04:07:12;;;;;;;0.75;0.75;;;4.90;99.90;;;;;;5021084;28;20038;-66
2021/12/08 04:09:42;;;;;;;5.00;1.83;;;4.90;99.90;;;;;;5015137;28;20017;-66
2021/12/08 04:12:10;;;;;;;4.05;1.63;;;4.90;99.90;;;;;;5020439;28;20010;-66
2021/12/08 04:14:39;;;;;;;2.67;1.33;;;4.90;99.90;;;;;;5025640;28;20057;-66
2021/12/08 04:17:13;;;;;;;3.38;1.75;;;4.90;99.90;;;;;;5030585;28;20109;-66
2021/12/08 04:19:40;;;;;;;4.57;1.90;;;4.90;99.90;;;;;;5026781;28;20029;-66
2021/12/08 04:22:14;;;;;;;3.63;1.50;;;4.80;99.90;;;;;;5026363;28;20469;-66
2021/12/08 04:24:43;;;;;;;2.95;1.40;;;4.80;99.90;;;;;;5030942;28;20022;-66
2021/12/08 04:27:14;;;;;;;5.32;1.95;;;4.80;99.90;;;;;;5026795;28;20030;-66
2021/12/08 04:29:41;;;;;;;4.43;1.63;;;4.90;99.90;;;;;;5031772;28;20021;-66
2021/12/08 04:32:10;;;;;;;2.05;1.08;;;4.90;99.90;;;;;;5026223;28;20013;-66
2021/12/08 04:34:38;;;;;;;1.77;1.20;;;4.90;99.90;;;;;;5029629;28;20037;-66
2021/12/08 04:37:15;;;;;;;4.35;1.90;;;5.00;99.90;;;;;;5024562;28;20068;-66
2021/12/08 04:40:12;;;;;;;1.60;1.00;;;5.00;99.90;;;;;;5022056;28;20535;-66
2021/12/08 04:45:19;;;;;;;6.95;1.70;;;5.00;99.90;;;;;;5025959;28;20029;-66
2021/12/08 04:48:10;;;;;;;2.03;1.13;;;5.10;99.90;;;;;;5029519;28;20044;-65
2021/12/08 05:01:25;;;;;;;6.32;1.30;;;4.90;99.90;;;;;;5029445;28;20079;-66
2021/12/08 05:09:22;;;;;;;4.47;0.88;;;4.90;99.90;;;;;;5021155;28;20025;-66
2021/12/08 05:11:52;;;;;;;3.58;1.42;;;4.90;99.90;;;;;;5028025;28;20037;-66
2021/12/08 05:14:32;;;;;;;2.17;0.98;;;4.90;99.90;;;;;;5023776;28;20040;-66
2021/12/08 05:17:09;;;;;;;2.10;1.13;;;4.90;99.90;;;;;;5021215;28;20065;-66
2021/12/08 05:19:35;;;;;;;1.33;0.98;;;5.00;99.90;;;;;;5027615;28;20069;-66
2021/12/08 05:22:33;;;;;;;0.80;0.73;;;5.10;99.90;;;;;;5023158;28;20030;-66
2021/12/08 05:25:02;;;;;;;4.03;1.73;;;5.00;99.90;;;;;;5017951;28;20085;-66
2021/12/08 05:27:39;;;;;;;3.78;1.48;;;5.00;99.90;;;;;;5027473;28;20022;-66
2021/12/08 05:30:13;;;;;;;7.25;1.63;;;5.00;99.90;;;;;;5021252;28;20234;-66
2021/12/08 05:32:39;;;;;;;8.30;2.50;;;5.00;99.90;;;;;;5027496;28;20028;-66
2021/12/08 05:35:09;;;;;;;6.85;1.73;;;5.00;99.90;;;;;;5022506;28;20022;-66
2021/12/08 05:37:35;;;;;;;1.20;1.00;;;5.00;99.90;;;;;;5027305;28;20029;-66
2021/12/08 05:40:01;;;;;;;1.65;1.17;;;5.00;99.90;;;;;;5025398;28;20473;-66
2021/12/08 05:42:31;;;;;;;3.03;1.35;;;5.00;99.90;;;;;;5026456;28;20017;-66
2021/12/08 05:44:57;;;;;;;1.85;1.23;;;5.00;99.90;;;;;;5022933;28;20013;-66
2021/12/08 05:47:27;;;;;;;4.47;1.85;;;5.00;99.90;;;;;;5024415;28;20051;-66
2021/12/08 05:49:54;;;;;;;5.93;2.03;;;5.10;99.90;;;;;;5025962;28;20472;-66
2021/12/08 05:52:20;;;;;;;6.15;1.98;;;5.20;99.90;;;;;;5023652;28;20034;-66
2021/12/08 05:54:47;;;;;;;2.83;1.52;;;5.20;99.90;;;;;;5026064;28;20044;-66
2021/12/08 05:57:36;;;;;;;3.72;1.23;;;5.30;99.90;;;;;;5022647;28;20154;-66
2021/12/08 06:00:12;;;;;;;3.20;1.42;;;5.30;99.90;;;;;;5023927;28;20092;-66
2021/12/08 06:02:38;;;;;;;0.90;0.85;;;5.40;99.90;;;;;;5027912;28;20036;-66
2021/12/08 06:05:07;;;;;;;4.47;2.22;;;5.30;99.90;;;;;;5026243;28;20025;-66
2021/12/08 06:07:33;;;;;;;4.00;1.55;;;5.40;99.90;;;;;;5023960;28;20045;-66
2021/12/08 06:10:04;;;;;;;2.75;1.15;;;5.30;99.90;;;;;;5027929;28;20028;-66
2021/12/08 06:12:29;;;;;;;1.33;0.90;;;5.30;99.90;;;;;;5026047;28;20473;-67
2021/12/08 06:14:56;;;;;;;4.20;1.55;;;5.30;99.90;;;;;;5029883;28;20044;-65
2021/12/08 06:17:28;;;;;;;6.68;1.95;;;5.20;99.90;;;;;;5025752;28;20115;-66
2021/12/08 06:19:54;;;;;;;2.08;1.20;;;5.10;99.90;;;;;;5022182;28;20100;-66
2021/12/08 06:22:23;;;;;;;1.40;0.90;;;5.10;99.90;;;;;;5026520;28;20025;-65
2021/12/08 06:24:50;;;;;;;2.97;1.58;;;5.00;99.90;;;;;;5025623;28;20017;-66
2021/12/08 06:27:15;;;;;;;3.63;1.52;;;5.00;99.90;;;;;;5025589;28;20040;-65
2021/12/08 06:29:43;;;;;;;1.90;1.02;;;5.00;99.90;;;;;;5027536;28;20025;-65
2021/12/08 06:32:11;;;;;;;1.27;1.00;;;5.00;99.90;;;;;;5025708;28;20022;-65
2021/12/08 06:34:38;;;;;;;6.13;2.05;;;4.90;99.90;;;;;;5024951;28;20161;-65
2021/12/08 06:37:09;;;;;;;3.72;1.90;;;4.90;99.90;;;;;;5021154;28;20048;-66
2021/12/08 06:39:59;;;;;;;2.65;1.38;;;4.90;99.90;;;;;;5023774;28;20021;-65
2021/12/08 06:42:30;;;;;;;3.58;1.67;;;4.80;99.90;;;;;;5020947;28;20484;-66
2021/12/08 06:44:57;;;;;;;2.60;1.40;;;4.70;99.90;;;;;;5017358;28;20065;-65
2021/12/08 06:47:26;;;;;;;2.45;1.30;;;4.80;99.90;;;;;;5016172;28;20388;-65
2021/12/08 06:49:55;;;;;;;2.55;1.05;;;4.70;99.90;;;;;;5026570;28;20079;-65
2021/12/08 06:52:30;;;;;;;4.10;1.30;;;4.70;99.90;;;;;;5023559;28;20083;-65
2021/12/08 06:55:00;;;;;;;9.73;1.70;;;4.80;99.90;;;;;;5022547;28;20048;-65
2021/12/08 06:57:33;;;;;;;3.50;1.50;;;4.80;99.90;;;;;;5021289;28;20068;-65
2021/12/08 07:00:17;;;;;;;6.20;2.25;;;4.70;99.90;;;;;;5020034;28;20046;-66
2021/12/08 07:05:26;;;;;;;2.70;1.38;;;4.70;99.90;;;;;;5021660;28;20056;-65
2021/12/08 07:07:56;;;;;;;1.75;1.13;;;4.70;99.90;;;;;;5022968;28;20049;-65
2021/12/08 07:10:28;;;;;;;1.10;0.80;;;4.70;99.90;;;;;;5020450;28;20112;-66
2021/12/08 07:13:19;;;;;;;3.67;1.40;;;4.60;99.90;;;;;;5024513;28;20112;-65
2021/12/08 07:15:57;;;;;;;2.78;1.38;;;4.60;99.90;;;;;;5020914;28;20451;-65
2021/12/08 07:18:54;;;;;;;3.05;1.60;;;4.50;99.90;;;;;;5014697;28;20112;-65
2021/12/08 07:21:24;;;;;;;1.77;1.10;;;4.50;99.90;;;;;;5020384;28;20033;-65
2021/12/08 07:23:55;;;;;;;11.10;1.92;;;4.60;99.90;;;;;;5022237;28;20088;-65
2021/12/08 07:26:25;;;;;;;2.03;1.05;;;4.70;99.90;;;;;;5025605;28;20572;-65
2021/12/08 07:28:52;;;;;;;2.78;1.30;;;4.70;99.90;;;;;;5023092;28;20349;-65
2021/12/08 07:31:29;;;;;;;2.97;1.40;;;4.70;99.90;;;;;;5024572;28;20033;-65
2021/12/08 07:34:02;;;;;;;2.58;1.42;;;4.70;99.90;;;;;;5024231;28;20137;-65
2021/12/08 07:36:28;;;;;;;5.78;1.63;;;4.80;99.90;;;;;;5020580;28;20049;-65
2021/12/08 07:38:55;;;;;;;3.10;1.33;;;4.80;99.90;;;;;;5027701;28;20053;-65
2021/12/08 07:41:32;;;;;;;5.25;1.58;;;4.70;99.90;;;;;;5019479;28;20022;-65
2021/12/08 07:44:04;;;;;;;9.80;1.83;;;4.70;99.90;;;;;;5024869;28;20021;-66
2021/12/08 07:46:53;;;;;;;3.15;1.23;;;4.70;99.90;;;;;;5026183;28;20047;-65
2021/12/08 07:49:43;;;;;;;2.38;1.60;;;4.80;99.90;;;;;;5027033;28;20913;-65
2021/12/08 07:52:23;;;;;;;;;;;4.90;99.90;;;;;;5022632;28;20083;-65
2021/12/08 07:54:50;;;;;;;2.70;1.67;;;4.90;99.90;;;;;;5031648;28;20327;-66
2021/12/08 07:57:22;;;;;;;3.13;1.50;;;5.00;99.90;;;;;;5035792;28;20034;-66
2021/12/08 07:59:51;;;;;;;4.57;1.88;;;5.00;99.90;;;;;;5027572;28;20026;-66
2021/12/08 08:02:17;;;;;;;8.43;2.70;;;4.90;99.90;;;;;;5024961;28;20029;-65
2021/12/08 08:04:47;;;;;;;2.92;1.55;;;5.00;99.90;;;;;;5020780;28;20128;-66
2021/12/08 08:07:15;;;;;;;6.15;1.95;;;5.00;99.90;;;;;;5020702;28;20045;-66
2021/12/08 08:09:44;;;;;;;1.90;1.27;;;5.00;99.90;;;;;;5021496;28;20366;-65
2021/12/08 08:12:21;;;;;;;2.65;1.45;;;5.00;99.90;;;;;;5023824;28;20036;-65
2021/12/08 08:14:53;;;;;;;3.03;1.63;;;5.00;99.90;;;;;;5017492;28;20107;-65
2021/12/08 08:17:28;;;;;;;3.28;1.77;;;5.00;99.90;;;;;;5018404;28;20116;-66
2021/12/08 08:19:54;;;;;;;9.80;1.30;;;5.10;99.90;;;;;;5016130;28;20029;-65
2021/12/08 08:22:26;;;;;;;1.85;1.08;;;5.20;99.90;;;;;;5015286;28;20026;-65
2021/12/08 08:24:53;;;;;;;2.10;1.00;;;5.20;99.90;;;;;;5018338;28;20033;-65
2021/12/08 08:27:20;;;;;;;3.70;1.65;;;5.20;99.90;;;;;;5017943;28;20017;-65
2021/12/08 08:29:46;;;;;;;1.85;1.02;;;5.20;99.90;;;;;;5023388;28;20021;-65
2021/12/08 08:32:24;;;;;;;2.33;0.98;;;5.20;99.90;;;;;;5019648;28;20118;-65
2021/12/08 08:34:53;;;;;;;13.75;1.73;;;5.20;99.90;;;;;;5021465;28;20160;-65
2021/12/08 08:37:19;;;;;;;2.00;1.17;;;5.20;99.90;;;;;;5016676;28;20057;-66
2021/12/08 08:39:55;;;;;;;8.68;1.65;;;5.10;99.90;;;;;;5017398;28;20041;-66
2021/12/08 08:42:25;;;;;;;3.35;1.40;;;5.20;99.90;;;;;;5021500;28;20044;-66
2021/12/08 08:45:10;;;;;;;3.38;1.42;;;5.20;99.90;;;;;;5017948;28;20555;-66
2021/12/08 08:47:52;;;;;;;3.42;1.80;;;5.30;99.90;;;;;;5019436;28;20803;-66
2021/12/08 08:50:24;;;;;;;2.33;1.40;;;5.30;99.90;;;;;;5014771;28;20029;-65
2021/12/08 08:52:52;;;;;;;3.42;1.52;;;5.40;99.90;;;;;;5017233;28;20076;-66
2021/12/08 08:55:46;;;;;;;3.20;1.40;;;5.30;99.90;;;;;;5016949;28;20062;-66
2021/12/08 08:58:13;;;;;;;2.08;1.27;;;5.40;99.90;;;;;;5017020;28;20025;-66
2021/12/08 09:00:42;;;;;;;8.35;1.73;;;5.40;99.90;;;;;;5019657;28;20013;-66
2021/12/08 09:03:12;;;;;;;3.47;1.50;;;5.50;99.90;;;;;;5020890;28;20021;-66
2021/12/08 09:05:44;;;;;;;4.13;1.20;;;5.60;99.90;;;;;;5022930;28;20026;-66
2021/12/08 09:08:12;;;;;;;3.42;1.38;;;5.60;99.90;;;;;;5014837;28;20072;-66
2021/12/08 09:10:50;;;;;;;4.28;1.60;;;5.70;99.90;;;;;;5014090;28;20029;-66
2021/12/08 09:13:25;;;;;;;4.78;1.77;;;5.70;99.90;;;;;;5018446;28;20036;-66
2021/12/08 09:15:54;;;;;;;2.40;1.20;;;5.70;99.90;;;;;;5016005;28;20022;-66
2021/12/08 09:18:37;;;;;;;5.57;1.20;;;5.90;99.90;;;;;;5019074;28;20112;-66
2021/12/08 09:21:29;;;;;;;7.68;1.40;;;5.90;99.90;;;;;;5020585;28;20022;-66
2021/12/08 09:24:17;;;;;;;5.97;1.30;;;6.00;99.90;;;;;;5021289;28;20030;-66
2021/12/08 09:26:47;;;;;;;1.23;0.93;;;6.00;99.90;;;;;;5016084;28;20028;-66
2021/12/08 09:29:17;;;;;;;3.78;1.33;;;6.10;99.90;;;;;;5019086;28;20025;-66
2021/12/08 09:32:19;;;;;;;2.80;1.42;;;6.10;99.90;;;;;;5018253;28;20091;-66
2021/12/08 09:34:57;;;;;;;2.88;1.38;;;6.20;99.90;;;;;;5005827;28;20034;-66
2021/12/08 09:37:31;;;;;;;11.25;1.00;;;6.30;99.90;;;;;;5042541;28;20489;-66
2021/12/08 09:40:22;;;;;;;1.77;1.05;;;6.30;99.90;;;;;;5020753;28;20025;-66
2021/12/08 09:42:51;;;;;;;3.13;2.00;;;6.30;99.90;;;;;;5022273;28;20575;-66
2021/12/08 09:45:35;;;;;;;3.85;1.30;;;6.30;99.90;;;;;;5030764;28;20045;-66
2021/12/08 09:48:04;;;;;;;3.05;1.58;;;6.20;99.90;;;;;;5028852;28;20389;-66
2021/12/08 09:50:30;;;;;;;6.63;2.33;;;6.20;99.90;;;;;;5017776;28;20049;-66
2021/12/08 09:52:57;;;;;;;1.65;1.00;;;6.10;99.90;;;;;;5012687;28;20038;-66
2021/12/08 09:55:23;;;;;;;3.85;1.55;;;6.10;99.90;;;;;;5018729;28;20032;-66
2021/12/08 09:57:49;;;;;;;2.88;1.00;;;6.10;99.90;;;;;;5018847;28;20037;-66
2021/12/08 10:00:24;;;;;;;3.30;1.35;;;6.20;99.90;;;;;;5025050;28;20029;-66
2021/12/08 10:02:57;;;;;;;1.35;0.90;;;6.30;99.90;;;;;;5024200;28;20712;-66
2021/12/08 10:05:25;;;;;;;2.65;1.52;;;6.30;99.90;;;;;;5018727;28;20547;-66
2021/12/08 10:07:51;;;;;;;2.97;1.40;;;6.30;99.90;;;;;;5023135;28;20037;-66
2021/12/08 10:10:17;;;;;;;2.10;1.27;;;6.30;99.90;;;;;;5018511;28;20036;-66
2021/12/08 10:12:44;;;;;;;1.75;1.08;;;6.40;99.90;;;;;;5016235;28;20393;-66
2021/12/08 10:15:13;;;;;;;2.25;1.25;;;6.40;99.90;;;;;;5018263;28;20477;-66
2021/12/08 10:17:39;;;;;;;3.55;1.45;;;6.50;99.90;;;;;;5012616;28;20106;-66
2021/12/08 10:20:16;;;;;;;1.67;1.15;;;6.50;99.90;;;;;;5020828;28;20113;-66
2021/12/08 10:22:44;;;;;;;7.63;1.58;;;6.50;99.90;;;;;;5016485;28;20153;-66
2021/12/08 10:25:15;;;;;;;2.67;1.50;;;6.50;99.90;;;;;;5018718;28;20088;-66
2021/12/08 10:28:08;;;;;;;1.55;1.00;;;6.40;99.90;;;;;;5016748;28;20033;-66
2021/12/08 10:30:45;;;;;;;1.48;1.00;;;6.40;99.90;;;;;;5023669;28;20052;-66
2021/12/08 10:33:36;;;;;;;1.45;1.17;;;6.40;99.90;;;;;;5014763;28;20040;-66
2021/12/08 10:36:15;;;;;;;0.80;0.80;;;6.50;99.90;;;;;;5017339;28;20153;-66
2021/12/08 10:38:41;;;;;;;5.32;1.33;;;6.50;99.90;;;;;;5015143;28;20038;-66
2021/12/08 10:41:07;;;;;;;1.70;1.20;;;6.50;99.90;;;;;;5018653;28;20033;-66
2021/12/08 10:43:34;;;;;;;4.07;1.27;;;6.50;99.90;;;;;;5018742;28;20028;-66
2021/12/08 10:45:59;;;;;;;2.55;1.55;;;6.60;99.90;;;;;;5015422;28;20087;-66
2021/12/08 10:48:35;;;;;;;9.07;0.95;;;6.60;99.90;;;;;;5019704;28;20029;-66
2021/12/08 10:56:37;;;;;;;1.45;1.00;;;6.60;99.90;;;;;;5017909;28;20080;-66
2021/12/08 10:59:03;;;;;;;1.65;1.00;;;6.60;99.90;;;;;;5016673;28;20486;-66
2021/12/08 11:01:29;;;;;;;0.88;0.80;;;6.60;99.90;;;;;;5025117;28;20249;-66
2021/12/08 11:04:03;;;;;;;1.08;0.90;;;6.60;99.90;;;;;;5025797;28;20450;-66
2021/12/08 11:06:33;;;;;;;1.10;1.00;;;6.70;99.90;;;;;;5013699;28;20050;-66
2021/12/08 11:08:59;;;;;;;1.75;0.88;;;6.80;99.90;;;;;;5017657;28;20034;-66
2021/12/08 11:11:32;;;;;;;8.07;1.35;;;6.80;99.90;;;;;;5023369;28;20029;-66
2021/12/08 11:14:06;;;;;;;8.43;1.42;;;6.70;99.90;;;;;;5024369;28;20037;-66
2021/12/08 11:16:34;;;;;;;1.20;0.88;;;6.80;99.90;;;;;;5019192;28;20025;-66
2021/12/08 11:19:10;;;;;;;7.00;1.30;;;6.80;99.90;;;;;;5024423;28;20206;-66
2021/12/08 11:21:41;;;;;;;4.25;1.45;;;6.80;99.90;;;;;;5020803;28;20498;-66
2021/12/08 11:24:35;;;;;;;0.70;0.70;;;6.80;99.90;;;;;;5030143;28;20107;-66
2021/12/08 11:27:04;;;;;;;2.28;0.80;;;6.80;99.90;;;;;;5027342;28;20026;-66
2021/12/08 11:29:33;;;;;;;3.45;1.40;;;6.80;99.90;;;;;;5029279;28;20473;-66
2021/12/08 11:32:03;;;;;;;4.07;1.55;;;6.80;99.90;;;;;;5026944;28;20062;-66
2021/12/08 11:34:30;;;;;;;6.03;1.33;;;6.90;99.90;;;;;;5030350;28;20082;-66
2021/12/08 11:37:08;;;;;;;2.17;1.25;;;6.90;99.90;;;;;;5031188;28;20392;-65
2021/12/08 11:39:38;;;;;;;1.33;1.08;;;6.90;99.90;;;;;;5029058;28;20048;-65
2021/12/08 11:42:12;;;;;;;1.95;0.98;;;6.90;99.90;;;;;;5031021;28;20021;-65
2021/12/08 11:44:44;;;;;;;3.80;1.25;;;6.90;99.90;;;;;;5030522;28;20045;-66
2021/12/08 11:47:32;;;;;;;1.63;0.93;;;6.90;99.90;;;;;;5026523;28;20108;-65
2021/12/08 11:50:00;;;;;;;1.77;1.10;;;6.90;99.90;;;;;;5022394;28;20021;-65
2021/12/08 11:52:29;;;;;;;2.10;1.10;;;7.00;99.90;;;;;;5026719;28;20112;-66
2021/12/08 11:55:16;;;;;;;34.20;1.38;;;7.10;99.90;;;;;;5027303;28;20033;-65
2021/12/08 11:57:46;;;;;;;1.13;1.00;;;7.30;99.90;;;;;;5021473;28;20120;-65
2021/12/08 12:00:22;;;;;;;1.98;1.40;;;7.20;99.90;;;;;;5014836;28;20022;-65
2021/12/08 12:03:09;;;;;;;2.33;0.98;;;7.20;99.90;;;;;;5022799;28;20238;-65
2021/12/08 12:05:47;;;;;;;2.40;1.33;;;7.20;99.90;;;;;;5024469;28;20021;-65
2021/12/08 12:08:16;;;;;;;3.40;1.30;;;7.30;99.90;;;;;;5025312;28;20033;-65
2021/12/08 12:10:48;;;;;;;1.50;1.00;;;7.40;99.90;;;;;;5029072;28;20366;-65
2021/12/08 12:13:14;;;;;;;8.40;1.33;;;7.60;99.90;;;;;;5029936;28;20025;-65
2021/12/08 12:15:47;;;;;;;28.08;1.42;;;7.90;99.90;;;;;;5025209;28;20029;-66
2021/12/08 12:18:13;;;;;;;3.20;1.45;;;8.10;99.90;;;;;;5029946;28;20022;-66
2021/12/08 12:20:42;;;;;;;4.13;1.25;;;8.10;99.90;;;;;;5025896;28;20022;-66
2021/12/08 12:23:36;;;;;;;2.28;1.08;;;8.10;99.90;;;;;;5028017;28;20056;-66
2021/12/08 12:26:20;;;;;;;3.20;1.15;;;8.20;99.90;;;;;;5026302;28;20026;-66
2021/12/08 12:29:06;;;;;;;2.63;1.40;;;8.30;99.90;;;;;;5026783;28;20284;-65
2021/12/08 12:31:44;;;;;;;2.63;1.23;;;8.30;99.90;;;;;;5017319;28;20486;-65
2021/12/08 12:34:26;;;;;;;1.33;1.00;;;8.20;99.90;;;;;;5026648;28;20033;-66
2021/12/08 12:36:52;;;;;;;4.03;1.45;;;7.90;99.90;;;;;;5025343;28;20025;-67
2021/12/08 12:39:27;;;;;;;1.00;0.82;;;7.60;99.90;;;;;;5024158;28;20672;-66
2021/12/08 12:42:15;;;;;;;1.05;0.80;;;7.70;99.90;;;;;;5025718;28;20077;-66
2021/12/08 12:44:45;;;;;;;2.85;1.02;;;7.60;99.90;;;;;;5025241;28;21041;-66
2021/12/08 12:47:15;;;;;;;4.90;1.45;;;7.70;99.90;;;;;;5023799;28;20025;-67
2021/12/08 12:49:45;;;;;;;1.80;1.00;;;7.70;99.90;;;;;;5024694;28;20604;-67
2021/12/08 12:52:15;;;;;;;1.73;1.10;;;7.70;99.90;;;;;;5025074;28;20026;-67
2021/12/08 12:54:43;;;;;;;1.42;0.90;;;7.80;99.90;;;;;;5020324;28;20026;-67
2021/12/08 12:57:10;;;;;;;4.65;1.25;;;7.90;99.90;;;;;;5024347;28;20021;-67
2021/12/08 12:59:50;;;;;;;1.30;0.82;;;7.90;99.90;;;;;;5018716;28;20026;-67
2021/12/08 13:02:34;;;;;;;2.30;1.00;;;7.90;99.90;;;;;;5021183;28;20028;-66
2021/12/08 13:05:08;;;;;;;0.60;0.60;;;7.80;99.90;;;;;;5027078;28;20049;-65
2021/12/08 13:07:39;;;;;;;3.08;1.10;;;7.80;99.90;;;;;;5021600;28;20076;-65
2021/12/08 13:10:15;;;;;;;7.07;1.02;;;7.70;99.90;;;;;;5018472;28;20057;-66
2021/12/08 13:12:43;;;;;;;4.00;1.00;;;7.80;99.90;;;;;;5024151;28;20111;-66
2021/12/08 13:15:14;;;;;;;1.42;0.80;;;7.90;99.90;;;;;;5024450;28;20061;-66
2021/12/08 13:18:07;;;;;;;4.93;1.35;;;7.90;99.90;;;;;;5023468;28;20026;-65
2021/12/08 13:20:43;;;;;;;2.47;1.05;;;7.70;99.90;;;;;;5022846;28;20033;-65
2021/12/08 13:23:17;;;;;;;3.70;1.27;;;7.50;99.90;;;;;;5020125;28;20030;-65
2021/12/08 13:28:29;;;;;;;1.70;0.88;;;7.30;99.90;;;;;;5021268;28;20029;-65
2021/12/08 13:31:37;;;;;;;1.90;0.93;;;7.30;99.90;;;;;;5020812;28;20512;-65
2021/12/08 13:34:04;;;;;;;0.85;0.80;;;7.30;99.90;;;;;;5023737;28;20034;-65
2021/12/08 13:36:36;;;;;;;0.60;0.60;;;7.40;99.90;;;;;;5037646;28;20393;-65
2021/12/08 13:39:08;;;;;;;1.45;1.33;;;7.30;99.90;;;;;;5022304;28;20030;-65
2021/12/08 13:41:38;;;;;;;1.67;1.05;;;7.20;99.90;;;;;;5025289;28;20022;-65
2021/12/08 13:44:20;;;;;;;3.70;1.50;;;7.30;99.90;;;;;;5025671;28;20021;-65
2021/12/08 13:46:57;;;;;;;2.28;1.10;;;7.20;99.90;;;;;;5016776;28;20018;-65
2021/12/08 13:49:27;;;;;;;1.02;0.80;;;7.20;99.90;;;;;;5017272;28;20028;-65
2021/12/08 13:52:08;;;;;;;2.92;1.42;;;7.20;99.90;;;;;;5021521;28;20018;-66
2021/12/08 13:54:34;;;;;;;0.80;0.80;;;7.20;99.90;;;;;;5015652;28;20034;-66
2021/12/08 13:57:02;;;;;;;3.40;1.20;;;7.10;99.90;;;;;;5024690;28;20033;-65
2021/12/08 13:59:50;;;;;;;1.13;0.90;;;7.10;99.90;;;;;;5021981;28;20033;-65
2021/12/08 14:02:30;;;;;;;1.40;0.80;;;7.10;99.90;;;;;;5019002;28;20017;-65
2021/12/08 14:05:15;;;;;;;;;;;7.00;99.90;;;;;;5026398;28;20037;-65
2021/12/08 14:07:44;;;;;;;2.20;1.13;;;7.00;99.90;;;;;;5014815;28;19928;-65
2021/12/08 14:10:16;;;;;;;;;;;6.90;99.90;;;;;;5022160;28;20136;-65